Terminal Aerodrome Forecast
Issued by NWS

Home | Current Version | Previous Version | Text Only | Print | Product List | Glossary On
Versions: 1 2 3 4 5 6 7 8 9 10 11 12 13 14
000
FTUS46 KLOX 181700
TAFOXR
TAF
KOXR 181737Z 1818/1918 24005KT P6SM SKC
     FM182000 27010KT P6SM SKC
     FM190400 VRB03KT 6SM BR SKC
     FM190900 VRB03KT 4SM BR BKN007
     FM191100 VRB03KT 1/2SM FG OVC005=

USA.gov is the U.S. government's official web portal to all federal, state and local government web resources and services.